sensor_id;sensor_type;location;lat;lon;timestamp;pressure;altitude;pressure_sealevel;temperature;humidity
43420;BME280;29017;51.514;-0.178;2023-04-29T00:02:01;101362.25;;;13.22;80.69
43420;BME280;29017;51.514;-0.178;2023-04-29T00:04:28;101359.13;;;13.18;80.68
43420;BME280;29017;51.514;-0.178;2023-04-29T00:06:56;101357.91;;;13.13;81.02
43420;BME280;29017;51.514;-0.178;2023-04-29T00:09:23;101360.16;;;13.08;81.07
43420;BME280;29017;51.514;-0.178;2023-04-29T00:11:50;101356.19;;;13.04;81.42
43420;BME280;29017;51.514;-0.178;2023-04-29T00:14:17;101358.63;;;12.97;82.25
43420;BME280;29017;51.514;-0.178;2023-04-29T00:16:44;101355.47;;;12.94;82.67
43420;BME280;29017;51.514;-0.178;2023-04-29T00:19:11;101359.91;;;12.93;83.17
43420;BME280;29017;51.514;-0.178;2023-04-29T00:21:38;101359.22;;;12.91;82.69
43420;BME280;29017;51.514;-0.178;2023-04-29T00:24:05;101360.88;;;12.92;83.44
43420;BME280;29017;51.514;-0.178;2023-04-29T00:26:32;101358.56;;;12.89;82.63
43420;BME280;29017;51.514;-0.178;2023-04-29T00:29:00;101360.19;;;12.90;82.42
43420;BME280;29017;51.514;-0.178;2023-04-29T00:31:27;101363.03;;;12.89;82.51
43420;BME280;29017;51.514;-0.178;2023-04-29T00:33:55;101358.41;;;12.91;82.12
43420;BME280;29017;51.514;-0.178;2023-04-29T00:36:23;101363.84;;;12.89;81.71
43420;BME280;29017;51.514;-0.178;2023-04-29T00:38:50;101367.47;;;12.88;81.14
43420;BME280;29017;51.514;-0.178;2023-04-29T00:41:17;101369.06;;;12.81;81.60
43420;BME280;29017;51.514;-0.178;2023-04-29T00:43:43;101368.88;;;12.74;82.09
43420;BME280;29017;51.514;-0.178;2023-04-29T00:46:10;101362.38;;;12.69;82.77
43420;BME280;29017;51.514;-0.178;2023-04-29T00:48:38;101369.47;;;12.68;83.09
43420;BME280;29017;51.514;-0.178;2023-04-29T00:51:05;101379.34;;;12.66;83.09
43420;BME280;29017;51.514;-0.178;2023-04-29T00:53:32;101381.69;;;12.69;83.28
43420;BME280;29017;51.514;-0.178;2023-04-29T00:55:59;101377.22;;;12.70;83.01
43420;BME280;29017;51.514;-0.178;2023-04-29T00:58:28;101373.09;;;12.67;82.95
43420;BME280;29017;51.514;-0.178;2023-04-29T01:01:02;101370.44;;;12.67;82.47
43420;BME280;29017;51.514;-0.178;2023-04-29T01:03:30;101370.75;;;12.64;82.51
43420;BME280;29017;51.514;-0.178;2023-04-29T01:06:03;101382.44;;;12.62;82.52
43420;BME280;29017;51.514;-0.178;2023-04-29T01:08:33;101378.31;;;12.59;83.04
43420;BME280;29017;51.514;-0.178;2023-04-29T01:11:07;101369.56;;;12.59;83.10
43420;BME280;29017;51.514;-0.178;2023-04-29T01:13:41;101378.31;;;12.59;83.21
43420;BME280;29017;51.514;-0.178;2023-04-29T01:16:12;101378.13;;;12.61;83.08
43420;BME280;29017;51.514;-0.178;2023-04-29T01:18:45;101377.16;;;12.62;82.78
43420;BME280;29017;51.514;-0.178;2023-04-29T01:21:15;101380.78;;;12.61;82.66
43420;BME280;29017;51.514;-0.178;2023-04-29T01:23:42;101374.84;;;12.59;82.98
43420;BME280;29017;51.514;-0.178;2023-04-29T01:26:10;101374.00;;;12.58;83.53
43420;BME280;29017;51.514;-0.178;2023-04-29T01:43:33;101389.94;;;12.49;84.37
43420;BME280;29017;51.514;-0.178;2023-04-29T01:46:05;101394.53;;;12.47;83.79
43420;BME280;29017;51.514;-0.178;2023-04-29T01:48:32;101396.63;;;12.43;84.77
43420;BME280;29017;51.514;-0.178;2023-04-29T01:50:59;101389.56;;;12.43;85.34
43420;BME280;29017;51.514;-0.178;2023-04-29T01:53:27;101392.84;;;12.46;84.92
43420;BME280;29017;51.514;-0.178;2023-04-29T01:55:54;101399.78;;;12.47;85.34
43420;BME280;29017;51.514;-0.178;2023-04-29T01:58:21;101395.50;;;12.46;85.05
43420;BME280;29017;51.514;-0.178;2023-04-29T02:00:48;101384.94;;;12.46;85.02
43420;BME280;29017;51.514;-0.178;2023-04-29T02:03:15;101395.50;;;12.46;85.42
43420;BME280;29017;51.514;-0.178;2023-04-29T02:05:43;101394.66;;;12.45;84.77
43420;BME280;29017;51.514;-0.178;2023-04-29T02:08:10;101398.00;;;12.47;85.98
43420;BME280;29017;51.514;-0.178;2023-04-29T02:10:37;101401.31;;;12.49;85.57
43420;BME280;29017;51.514;-0.178;2023-04-29T02:13:04;101401.47;;;12.48;85.47
43420;BME280;29017;51.514;-0.178;2023-04-29T02:15:31;101400.78;;;12.46;85.62
43420;BME280;29017;51.514;-0.178;2023-04-29T02:17:58;101406.22;;;12.44;85.33
43420;BME280;29017;51.514;-0.178;2023-04-29T02:20:25;101401.09;;;12.42;85.19
43420;BME280;29017;51.514;-0.178;2023-04-29T02:22:52;101410.13;;;12.40;85.54
43420;BME280;29017;51.514;-0.178;2023-04-29T02:25:19;101403.22;;;12.39;85.04
43420;BME280;29017;51.514;-0.178;2023-04-29T02:27:49;101409.28;;;12.39;85.75
43420;BME280;29017;51.514;-0.178;2023-04-29T02:30:17;101405.28;;;12.35;85.42
43420;BME280;29017;51.514;-0.178;2023-04-29T02:32:44;101402.66;;;12.35;85.76
43420;BME280;29017;51.514;-0.178;2023-04-29T02:35:11;101410.88;;;12.32;85.36
43420;BME280;29017;51.514;-0.178;2023-04-29T02:37:38;101415.47;;;12.30;85.16
43420;BME280;29017;51.514;-0.178;2023-04-29T02:40:05;101410.63;;;12.26;85.36
43420;BME280;29017;51.514;-0.178;2023-04-29T02:42:32;101411.63;;;12.25;85.74
43420;BME280;29017;51.514;-0.178;2023-04-29T02:44:59;101407.16;;;12.25;85.58
43420;BME280;29017;51.514;-0.178;2023-04-29T02:47:26;101417.91;;;12.24;85.97
43420;BME280;29017;51.514;-0.178;2023-04-29T02:49:54;101412.81;;;12.13;85.46
43420;BME280;29017;51.514;-0.178;2023-04-29T02:52:21;101418.94;;;12.13;85.51
43420;BME280;29017;51.514;-0.178;2023-04-29T02:54:48;101424.88;;;12.15;86.19
43420;BME280;29017;51.514;-0.178;2023-04-29T02:57:15;101424.03;;;12.15;85.23
43420;BME280;29017;51.514;-0.178;2023-04-29T02:59:42;101418.94;;;12.13;84.84
43420;BME280;29017;51.514;-0.178;2023-04-29T03:02:09;101427.81;;;12.12;85.33
43420;BME280;29017;51.514;-0.178;2023-04-29T03:04:36;101439.88;;;12.15;85.07
43420;BME280;29017;51.514;-0.178;2023-04-29T03:07:05;101435.72;;;12.12;85.23
43420;BME280;29017;51.514;-0.178;2023-04-29T03:09:33;101439.34;;;12.11;85.45
43420;BME280;29017;51.514;-0.178;2023-04-29T03:12:01;101440.31;;;12.10;85.10
43420;BME280;29017;51.514;-0.178;2023-04-29T03:14:28;101437.84;;;12.09;84.74
43420;BME280;29017;51.514;-0.178;2023-04-29T03:16:55;101430.50;;;12.03;85.73
43420;BME280;29017;51.514;-0.178;2023-04-29T03:19:23;101438.44;;;12.03;85.69
43420;BME280;29017;51.514;-0.178;2023-04-29T03:21:50;101434.13;;;12.02;85.10
43420;BME280;29017;51.514;-0.178;2023-04-29T03:24:19;101435.78;;;12.03;86.54
43420;BME280;29017;51.514;-0.178;2023-04-29T03:26:46;101443.00;;;12.00;86.18
43420;BME280;29017;51.514;-0.178;2023-04-29T03:29:13;101437.06;;;11.98;85.40
43420;BME280;29017;51.514;-0.178;2023-04-29T03:31:40;101437.88;;;11.99;85.96
43420;BME280;29017;51.514;-0.178;2023-04-29T03:34:07;101435.53;;;11.96;85.37
43420;BME280;29017;51.514;-0.178;2023-04-29T03:36:34;101437.34;;;11.95;85.32
43420;BME280;29017;51.514;-0.178;2023-04-29T03:39:01;101439.13;;;11.95;85.43
43420;BME280;29017;51.514;-0.178;2023-04-29T03:41:28;101446.09;;;11.96;85.34
43420;BME280;29017;51.514;-0.178;2023-04-29T03:43:55;101445.56;;;11.92;84.73
43420;BME280;29017;51.514;-0.178;2023-04-29T03:46:26;101446.38;;;11.93;85.78
43420;BME280;29017;51.514;-0.178;2023-04-29T03:48:53;101446.38;;;11.93;85.05
43420;BME280;29017;51.514;-0.178;2023-04-29T03:51:23;101440.16;;;11.84;84.71
43420;BME280;29017;51.514;-0.178;2023-04-29T03:53:51;101448.06;;;11.84;85.96
43420;BME280;29017;51.514;-0.178;2023-04-29T03:56:19;101447.94;;;11.86;86.19
43420;BME280;29017;51.514;-0.178;2023-04-29T03:58:46;101446.13;;;11.86;85.19
43420;BME280;29017;51.514;-0.178;2023-04-29T04:01:14;101443.34;;;11.88;85.35
43420;BME280;29017;51.514;-0.178;2023-04-29T04:03:41;101442.53;;;11.87;85.08
43420;BME280;29017;51.514;-0.178;2023-04-29T04:06:09;101445.31;;;11.86;84.63
43420;BME280;29017;51.514;-0.178;2023-04-29T04:08:36;101439.19;;;11.85;85.31
43420;BME280;29017;51.514;-0.178;2023-04-29T04:11:03;101444.47;;;11.85;84.90
43420;BME280;29017;51.514;-0.178;2023-04-29T04:13:30;101447.09;;;11.85;85.49
43420;BME280;29017;51.514;-0.178;2023-04-29T04:15:57;101454.19;;;11.85;85.52
43420;BME280;29017;51.514;-0.178;2023-04-29T04:18:24;101444.59;;;11.84;85.16
43420;BME280;29017;51.514;-0.178;2023-04-29T04:20:51;101457.78;;;11.84;85.41
43420;BME280;29017;51.514;-0.178;2023-04-29T04:23:18;101464.88;;;11.83;85.34
43420;BME280;29017;51.514;-0.178;2023-04-29T04:25:45;101461.41;;;11.83;84.78
43420;BME280;29017;51.514;-0.178;2023-04-29T04:28:13;101458.53;;;11.76;85.28
43420;BME280;29017;51.514;-0.178;2023-04-29T04:30:40;101462.00;;;11.77;85.36
43420;BME280;29017;51.514;-0.178;2023-04-29T04:33:07;101471.72;;;11.76;85.51
43420;BME280;29017;51.514;-0.178;2023-04-29T04:35:34;101470.88;;;11.76;85.45
43420;BME280;29017;51.514;-0.178;2023-04-29T04:38:01;101476.97;;;11.76;85.17
43420;BME280;29017;51.514;-0.178;2023-04-29T04:40:28;101478.78;;;11.76;85.18
43420;BME280;29017;51.514;-0.178;2023-04-29T04:42:55;101490.88;;;11.78;85.10
43420;BME280;29017;51.514;-0.178;2023-04-29T04:45:24;101496.28;;;11.77;84.37
43420;BME280;29017;51.514;-0.178;2023-04-29T04:47:53;101492.50;;;11.79;85.40
43420;BME280;29017;51.514;-0.178;2023-04-29T04:50:21;101498.34;;;11.83;85.47
43420;BME280;29017;51.514;-0.178;2023-04-29T04:52:48;101498.34;;;11.83;84.75
43420;BME280;29017;51.514;-0.178;2023-04-29T04:55:15;101505.94;;;11.86;85.18
43420;BME280;29017;51.514;-0.178;2023-04-29T04:57:42;101503.16;;;11.87;84.97
43420;BME280;29017;51.514;-0.178;2023-04-29T05:00:09;101508.97;;;11.91;84.72
43420;BME280;29017;51.514;-0.178;2023-04-29T05:02:36;101507.88;;;11.93;85.11
43420;BME280;29017;51.514;-0.178;2023-04-29T05:05:04;101516.59;;;11.94;85.16
43420;BME280;29017;51.514;-0.178;2023-04-29T05:07:31;101516.44;;;11.95;84.28
43420;BME280;29017;51.514;-0.178;2023-04-29T05:09:58;101517.69;;;12.01;83.84
43420;BME280;29017;51.514;-0.178;2023-04-29T05:12:26;101522.66;;;12.04;83.66
43420;BME280;29017;51.514;-0.178;2023-04-29T05:14:56;101524.59;;;12.12;84.97
43420;BME280;29017;51.514;-0.178;2023-04-29T05:17:23;101529.56;;;12.15;84.75
43420;BME280;29017;51.514;-0.178;2023-04-29T05:19:50;101533.03;;;12.15;83.64
43420;BME280;29017;51.514;-0.178;2023-04-29T05:22:18;101532.59;;;12.20;83.25
43420;BME280;29017;51.514;-0.178;2023-04-29T05:24:45;101533.97;;;12.24;83.49
43420;BME280;29017;51.514;-0.178;2023-04-29T05:27:14;101540.75;;;12.26;83.00
43420;BME280;29017;51.514;-0.178;2023-04-29T05:29:41;101540.31;;;12.31;83.36
43420;BME280;29017;51.514;-0.178;2023-04-29T05:32:08;101539.34;;;12.32;83.13
43420;BME280;29017;51.514;-0.178;2023-04-29T05:34:35;101542.81;;;12.32;82.41
43420;BME280;29017;51.514;-0.178;2023-04-29T05:37:02;101543.34;;;12.36;84.00
43420;BME280;29017;51.514;-0.178;2023-04-29T05:39:29;101545.84;;;12.37;82.76
43420;BME280;29017;51.514;-0.178;2023-04-29T05:41:56;101547.34;;;12.40;81.52
43420;BME280;29017;51.514;-0.178;2023-04-29T05:44:24;101545.53;;;12.40;81.88
43420;BME280;29017;51.514;-0.178;2023-04-29T05:46:51;101548.19;;;12.40;81.56
43420;BME280;29017;51.514;-0.178;2023-04-29T05:49:18;101542.63;;;12.43;81.61
43420;BME280;29017;51.514;-0.178;2023-04-29T05:51:45;101551.06;;;12.47;81.27
43420;BME280;29017;51.514;-0.178;2023-04-29T05:54:12;101550.78;;;12.50;80.69
43420;BME280;29017;51.514;-0.178;2023-04-29T05:56:40;101547.03;;;12.53;80.91
43420;BME280;29017;51.514;-0.178;2023-04-29T05:59:07;101545.22;;;12.53;80.85
43420;BME280;29017;51.514;-0.178;2023-04-29T06:01:34;101549.34;;;12.56;81.15
43420;BME280;29017;51.514;-0.178;2023-04-29T06:04:01;101553.53;;;12.58;81.61
43420;BME280;29017;51.514;-0.178;2023-04-29T06:06:28;101546.28;;;12.60;81.94
43420;BME280;29017;51.514;-0.178;2023-04-29T06:08:59;101546.28;;;12.60;81.58
43420;BME280;29017;51.514;-0.178;2023-04-29T06:11:26;101534.22;;;12.58;81.05
43420;BME280;29017;51.514;-0.178;2023-04-29T06:13:53;101537.50;;;12.60;80.98
43420;BME280;29017;51.514;-0.178;2023-04-29T06:16:20;101541.38;;;12.65;80.71
43420;BME280;29017;51.514;-0.178;2023-04-29T06:18:47;101550.69;;;12.69;80.90
43420;BME280;29017;51.514;-0.178;2023-04-29T06:21:14;101549.22;;;12.75;80.24
43420;BME280;29017;51.514;-0.178;2023-04-29T06:23:42;101553.91;;;12.81;79.44
43420;BME280;29017;51.514;-0.178;2023-04-29T06:26:09;101557.13;;;12.84;80.44
43420;BME280;29017;51.514;-0.178;2023-04-29T06:28:36;101558.63;;;12.87;79.51
43420;BME280;29017;51.514;-0.178;2023-04-29T06:31:03;101554.84;;;12.90;78.62
43420;BME280;29017;51.514;-0.178;2023-04-29T06:33:30;101565.09;;;12.93;78.91
43420;BME280;29017;51.514;-0.178;2023-04-29T06:35:59;101566.78;;;12.94;78.63
43420;BME280;29017;51.514;-0.178;2023-04-29T06:38:26;101567.44;;;12.96;77.27
43420;BME280;29017;51.514;-0.178;2023-04-29T06:40:53;101567.16;;;12.99;77.30
43420;BME280;29017;51.514;-0.178;2023-04-29T06:43:20;101560.34;;;12.96;77.91
43420;BME280;29017;51.514;-0.178;2023-04-29T06:45:47;101571.75;;;12.97;77.99
43420;BME280;29017;51.514;-0.178;2023-04-29T06:48:15;101574.25;;;12.98;77.91
43420;BME280;29017;51.514;-0.178;2023-04-29T06:50:47;101574.94;;;13.00;77.03
43420;BME280;29017;51.514;-0.178;2023-04-29T06:53:15;101578.56;;;12.99;77.09
43420;BME280;29017;51.514;-0.178;2023-04-29T06:55:42;101578.94;;;13.04;76.06
43420;BME280;29017;51.514;-0.178;2023-04-29T06:58:11;101579.88;;;13.13;75.40
43420;BME280;29017;51.514;-0.178;2023-04-29T07:00:39;101599.91;;;13.15;75.13
43420;BME280;29017;51.514;-0.178;2023-04-29T07:03:06;101604.19;;;13.16;74.82
43420;BME280;29017;51.514;-0.178;2023-04-29T07:05:34;101598.06;;;13.16;75.24
43420;BME280;29017;51.514;-0.178;2023-04-29T07:08:01;101593.69;;;13.24;76.04
43420;BME280;29017;51.514;-0.178;2023-04-29T07:10:28;101597.75;;;13.37;75.26
43420;BME280;29017;51.514;-0.178;2023-04-29T07:12:55;101602.75;;;13.40;74.14
43420;BME280;29017;51.514;-0.178;2023-04-29T07:15:22;101608.63;;;13.51;74.47
43420;BME280;29017;51.514;-0.178;2023-04-29T07:17:49;101609.38;;;13.61;72.63
43420;BME280;29017;51.514;-0.178;2023-04-29T07:20:16;101619.47;;;13.84;72.32
43420;BME280;29017;51.514;-0.178;2023-04-29T07:22:46;101613.78;;;13.96;71.40
43420;BME280;29017;51.514;-0.178;2023-04-29T07:25:13;101612.53;;;14.08;70.91
43420;BME280;29017;51.514;-0.178;2023-04-29T07:27:40;101617.31;;;14.05;70.14
43420;BME280;29017;51.514;-0.178;2023-04-29T07:30:07;101612.31;;;14.02;71.89
43420;BME280;29017;51.514;-0.178;2023-04-29T07:32:35;101607.66;;;13.96;71.56
43420;BME280;29017;51.514;-0.178;2023-04-29T07:35:03;101613.50;;;14.07;72.33
43420;BME280;29017;51.514;-0.178;2023-04-29T07:37:30;101616.50;;;14.12;71.26
43420;BME280;29017;51.514;-0.178;2023-04-29T07:39:57;101618.25;;;14.22;70.31
43420;BME280;29017;51.514;-0.178;2023-04-29T07:42:24;101623.34;;;14.41;70.61
43420;BME280;29017;51.514;-0.178;2023-04-29T07:44:51;101633.91;;;14.75;69.46
43420;BME280;29017;51.514;-0.178;2023-04-29T07:47:18;101633.72;;;15.18;66.98
43420;BME280;29017;51.514;-0.178;2023-04-29T07:49:45;101635.78;;;15.57;65.31
43420;BME280;29017;51.514;-0.178;2023-04-29T07:52:13;101632.94;;;15.99;62.72
43420;BME280;29017;51.514;-0.178;2023-04-29T07:54:40;101639.88;;;16.08;63.00
43420;BME280;29017;51.514;-0.178;2023-04-29T07:57:07;101641.53;;;16.17;62.23
43420;BME280;29017;51.514;-0.178;2023-04-29T07:59:34;101635.53;;;16.23;61.59
43420;BME280;29017;51.514;-0.178;2023-04-29T08:02:01;101636.03;;;16.26;61.00
43420;BME280;29017;51.514;-0.178;2023-04-29T08:04:28;101643.16;;;16.26;61.37
43420;BME280;29017;51.514;-0.178;2023-04-29T08:06:56;101645.50;;;16.21;62.24
43420;BME280;29017;51.514;-0.178;2023-04-29T08:09:23;101644.84;;;16.19;63.85
43420;BME280;29017;51.514;-0.178;2023-04-29T08:11:50;101662.94;;;16.15;63.05
43420;BME280;29017;51.514;-0.178;2023-04-29T08:14:17;101655.78;;;16.16;62.10
43420;BME280;29017;51.514;-0.178;2023-04-29T08:16:45;101648.81;;;16.23;62.93
43420;BME280;29017;51.514;-0.178;2023-04-29T08:19:12;101650.44;;;16.40;63.07
43420;BME280;29017;51.514;-0.178;2023-04-29T08:21:39;101647.78;;;16.32;61.80
43420;BME280;29017;51.514;-0.178;2023-04-29T08:24:07;101648.34;;;16.11;63.09
43420;BME280;29017;51.514;-0.178;2023-04-29T08:26:34;101648.84;;;15.91;63.54
43420;BME280;29017;51.514;-0.178;2023-04-29T08:29:01;101649.19;;;15.71;63.87
43420;BME280;29017;51.514;-0.178;2023-04-29T08:31:31;101645.53;;;15.56;65.41
43420;BME280;29017;51.514;-0.178;2023-04-29T08:33:58;101645.53;;;15.56;64.82
43420;BME280;29017;51.514;-0.178;2023-04-29T08:36:26;101645.53;;;15.56;65.17
43420;BME280;29017;51.514;-0.178;2023-04-29T08:38:54;101648.19;;;15.56;65.90
43420;BME280;29017;51.514;-0.178;2023-04-29T08:41:21;101648.03;;;15.58;66.02
43420;BME280;29017;51.514;-0.178;2023-04-29T08:43:49;101650.34;;;15.61;66.35
43420;BME280;29017;51.514;-0.178;2023-04-29T08:46:16;101650.53;;;15.67;66.74
43420;BME280;29017;51.514;-0.178;2023-04-29T08:48:44;101653.19;;;15.67;66.19
43420;BME280;29017;51.514;-0.178;2023-04-29T08:51:12;101671.09;;;15.65;65.22
43420;BME280;29017;51.514;-0.178;2023-04-29T08:53:39;101666.47;;;15.59;65.59
43420;BME280;29017;51.514;-0.178;2023-04-29T08:56:08;101666.78;;;15.56;65.33
43420;BME280;29017;51.514;-0.178;2023-04-29T08:58:38;101677.38;;;15.56;65.13
43420;BME280;29017;51.514;-0.178;2023-04-29T09:01:07;101675.91;;;15.62;64.50
43420;BME280;29017;51.514;-0.178;2023-04-29T09:06:03;101686.84;;;15.75;64.74
43420;BME280;29017;51.514;-0.178;2023-04-29T09:08:31;101668.78;;;15.95;63.56
43420;BME280;29017;51.514;-0.178;2023-04-29T09:10:58;101679.38;;;16.11;62.92
43420;BME280;29017;51.514;-0.178;2023-04-29T09:13:27;101680.19;;;16.11;63.31
43420;BME280;29017;51.514;-0.178;2023-04-29T09:15:54;101686.81;;;16.15;62.42
43420;BME280;29017;51.514;-0.178;2023-04-29T09:20:59;101687.97;;;16.21;61.96
43420;BME280;29017;51.514;-0.178;2023-04-29T09:23:38;101681.03;;;16.20;61.78
43420;BME280;29017;51.514;-0.178;2023-04-29T09:26:05;101687.00;;;16.22;62.05
43420;BME280;29017;51.514;-0.178;2023-04-29T09:28:32;101687.47;;;16.25;61.72
43420;BME280;29017;51.514;-0.178;2023-04-29T09:31:01;101686.81;;;16.32;63.45
43420;BME280;29017;51.514;-0.178;2023-04-29T09:33:47;101696.94;;;16.36;62.52
43420;BME280;29017;51.514;-0.178;2023-04-29T09:36:32;101694.47;;;16.35;61.49
43420;BME280;29017;51.514;-0.178;2023-04-29T09:39:01;101691.63;;;16.36;60.84
43420;BME280;29017;51.514;-0.178;2023-04-29T09:41:28;101696.25;;;16.42;60.90
43420;BME280;29017;51.514;-0.178;2023-04-29T09:44:03;101699.06;;;16.41;60.61
43420;BME280;29017;51.514;-0.178;2023-04-29T09:46:31;101691.75;;;16.51;62.25
43420;BME280;29017;51.514;-0.178;2023-04-29T09:48:59;101696.25;;;16.58;61.59
43420;BME280;29017;51.514;-0.178;2023-04-29T09:51:27;101703.34;;;16.66;61.88
43420;BME280;29017;51.514;-0.178;2023-04-29T09:53:54;101706.16;;;16.73;60.55
43420;BME280;29017;51.514;-0.178;2023-04-29T09:56:21;101699.53;;;16.68;59.43
43420;BME280;29017;51.514;-0.178;2023-04-29T09:58:49;101705.38;;;16.64;59.62
43420;BME280;29017;51.514;-0.178;2023-04-29T10:01:16;101702.19;;;16.68;60.46
43420;BME280;29017;51.514;-0.178;2023-04-29T10:03:47;101699.50;;;16.77;59.71
43420;BME280;29017;51.514;-0.178;2023-04-29T10:06:15;101702.47;;;16.82;59.08
43420;BME280;29017;51.514;-0.178;2023-04-29T10:08:42;101691.16;;;16.88;58.29
43420;BME280;29017;51.514;-0.178;2023-04-29T10:11:10;101693.81;;;16.96;58.41
43420;BME280;29017;51.514;-0.178;2023-04-29T10:13:38;101691.78;;;16.98;58.12
43420;BME280;29017;51.514;-0.178;2023-04-29T10:18:47;101695.25;;;17.06;58.20
43420;BME280;29017;51.514;-0.178;2023-04-29T10:21:15;101696.88;;;17.07;57.71
43420;BME280;29017;51.514;-0.178;2023-04-29T10:23:44;101702.88;;;17.09;56.75
43420;BME280;29017;51.514;-0.178;2023-04-29T10:26:12;101699.06;;;17.04;56.53
43420;BME280;29017;51.514;-0.178;2023-04-29T10:28:40;101698.94;;;16.97;56.85
43420;BME280;29017;51.514;-0.178;2023-04-29T10:31:09;101702.47;;;16.90;57.63
43420;BME280;29017;51.514;-0.178;2023-04-29T10:33:36;101703.97;;;16.84;58.25
43420;BME280;29017;51.514;-0.178;2023-04-29T10:36:06;101697.47;;;16.87;59.11
43420;BME280;29017;51.514;-0.178;2023-04-29T10:38:38;101704.25;;;16.97;59.05
43420;BME280;29017;51.514;-0.178;2023-04-29T10:41:08;101691.25;;;17.02;58.73
43420;BME280;29017;51.514;-0.178;2023-04-29T10:43:36;101695.88;;;17.08;58.60
43420;BME280;29017;51.514;-0.178;2023-04-29T10:46:19;101692.38;;;17.16;59.28
43420;BME280;29017;51.514;-0.178;2023-04-29T10:48:46;101693.81;;;17.27;59.60
43420;BME280;29017;51.514;-0.178;2023-04-29T10:59:03;101694.66;;;17.50;58.36
43420;BME280;29017;51.514;-0.178;2023-04-29T11:04:08;101696.78;;;17.54;57.75
43420;BME280;29017;51.514;-0.178;2023-04-29T11:09:07;101696.41;;;17.58;56.88
43420;BME280;29017;51.514;-0.178;2023-04-29T11:11:46;101688.78;;;17.54;57.52
43420;BME280;29017;51.514;-0.178;2023-04-29T11:14:20;101689.16;;;17.51;57.21
43420;BME280;29017;51.514;-0.178;2023-04-29T11:16:48;101679.69;;;17.49;57.03
43420;BME280;29017;51.514;-0.178;2023-04-29T11:19:17;101683.47;;;17.54;57.40
43420;BME280;29017;51.514;-0.178;2023-04-29T11:21:44;101687.44;;;17.59;57.68
43420;BME280;29017;51.514;-0.178;2023-04-29T11:24:14;101684.25;;;17.63;57.58
43420;BME280;29017;51.514;-0.178;2023-04-29T11:26:44;101694.88;;;17.71;57.43
43420;BME280;29017;51.514;-0.178;2023-04-29T11:29:11;101700.66;;;17.75;58.88
43420;BME280;29017;51.514;-0.178;2023-04-29T11:31:39;101697.00;;;17.76;57.88
43420;BME280;29017;51.514;-0.178;2023-04-29T11:34:06;101699.19;;;17.72;56.59
43420;BME280;29017;51.514;-0.178;2023-04-29T11:36:33;101692.00;;;17.73;56.85
43420;BME280;29017;51.514;-0.178;2023-04-29T11:39:02;101680.84;;;17.77;56.73
43420;BME280;29017;51.514;-0.178;2023-04-29T11:41:29;101691.44;;;17.85;57.24
43420;BME280;29017;51.514;-0.178;2023-04-29T11:43:59;101685.56;;;17.90;55.53
43420;BME280;29017;51.514;-0.178;2023-04-29T11:46:29;101685.84;;;17.95;54.75
43420;BME280;29017;51.514;-0.178;2023-04-29T11:48:56;101680.16;;;17.98;54.64
43420;BME280;29017;51.514;-0.178;2023-04-29T11:51:24;101686.13;;;18.00;54.34
43420;BME280;29017;51.514;-0.178;2023-04-29T11:53:52;101685.75;;;18.03;54.93
43420;BME280;29017;51.514;-0.178;2023-04-29T11:56:21;101686.31;;;17.99;54.24
43420;BME280;29017;51.514;-0.178;2023-04-29T11:58:58;101680.81;;;18.00;54.78
43420;BME280;29017;51.514;-0.178;2023-04-29T12:01:26;101683.31;;;18.02;54.06
43420;BME280;29017;51.514;-0.178;2023-04-29T12:03:57;101686.13;;;18.00;53.75
43420;BME280;29017;51.514;-0.178;2023-04-29T12:06:27;101681.09;;;18.05;53.97
43420;BME280;29017;51.514;-0.178;2023-04-29T12:08:57;101685.88;;;18.10;54.33
43420;BME280;29017;51.514;-0.178;2023-04-29T12:11:24;101678.56;;;18.12;53.59
43420;BME280;29017;51.514;-0.178;2023-04-29T12:13:52;101679.13;;;18.22;52.09
43420;BME280;29017;51.514;-0.178;2023-04-29T12:16:20;101678.13;;;18.23;52.32
43420;BME280;29017;51.514;-0.178;2023-04-29T12:18:50;101681.13;;;18.20;53.56
43420;BME280;29017;51.514;-0.178;2023-04-29T12:21:17;101683.78;;;18.20;53.93
43420;BME280;29017;51.514;-0.178;2023-04-29T12:23:45;101675.91;;;18.26;53.86
43420;BME280;29017;51.514;-0.178;2023-04-29T12:26:12;101674.34;;;18.32;53.07
43420;BME280;29017;51.514;-0.178;2023-04-29T12:28:39;101679.31;;;18.35;52.61
43420;BME280;29017;51.514;-0.178;2023-04-29T12:31:08;101671.97;;;18.37;53.62
43420;BME280;29017;51.514;-0.178;2023-04-29T12:33:37;101676.28;;;18.38;53.37
43420;BME280;29017;51.514;-0.178;2023-04-29T12:36:14;101671.41;;;18.42;52.46
43420;BME280;29017;51.514;-0.178;2023-04-29T12:38:42;101672.06;;;18.44;53.22
43420;BME280;29017;51.514;-0.178;2023-04-29T12:41:09;101672.88;;;18.44;54.05
43420;BME280;29017;51.514;-0.178;2023-04-29T12:43:40;101676.03;;;18.48;54.14
43420;BME280;29017;51.514;-0.178;2023-04-29T12:46:08;101678.00;;;18.54;54.10
43420;BME280;29017;51.514;-0.178;2023-04-29T12:48:36;101669.31;;;18.52;53.48
43420;BME280;29017;51.514;-0.178;2023-04-29T12:51:06;101665.09;;;18.57;53.73
43420;BME280;29017;51.514;-0.178;2023-04-29T12:53:35;101664.56;;;18.62;53.20
43420;BME280;29017;51.514;-0.178;2023-04-29T12:56:03;101668.22;;;18.61;53.43
43420;BME280;29017;51.514;-0.178;2023-04-29T12:58:30;101666.38;;;18.61;53.57
43420;BME280;29017;51.514;-0.178;2023-04-29T13:00:58;101669.06;;;18.61;53.54
43420;BME280;29017;51.514;-0.178;2023-04-29T13:03:26;101654.16;;;18.67;53.31
43420;BME280;29017;51.514;-0.178;2023-04-29T13:05:54;101660.22;;;18.75;54.14
43420;BME280;29017;51.514;-0.178;2023-04-29T13:08:21;101664.16;;;18.79;53.95
43420;BME280;29017;51.514;-0.178;2023-04-29T13:10:48;101657.25;;;18.85;52.61
43420;BME280;29017;51.514;-0.178;2023-04-29T13:13:15;101654.50;;;18.93;53.23
43420;BME280;29017;51.514;-0.178;2023-04-29T13:15:42;101655.38;;;19.00;52.94
43420;BME280;29017;51.514;-0.178;2023-04-29T13:18:09;101659.78;;;19.08;53.19
43420;BME280;29017;51.514;-0.178;2023-04-29T13:20:37;101656.75;;;19.11;52.15